Time;durP1;ratioP1;P1;durP2;ratioP2;P2;SDS_P1;SDS_P2;PMS_P1;PMS_P2;Temp;Humidity;BMP_temperature;BMP_pressure;BME280_temperature;BME280_humidity;BME280_pressure;Samples;Min_cycle;Max_cycle;Signal;HPM_P1;HPM_P2
2024/04/02 00:01:43;;;;;;;17.00;5.68;;;;;;;;;;5009413;28;20026;-48
2024/04/02 00:04:12;;;;;;;15.98;4.60;;;;;;;;;;5027058;28;20030;-54
2024/04/02 00:06:38;;;;;;;15.95;5.72;;;;;;;;;;5028199;28;20033;-50
2024/04/02 00:09:04;;;;;;;13.95;5.50;;;;;;;;;;5011377;28;20077;-49
2024/04/02 00:11:30;;;;;;;15.82;4.47;;;;;;;;;;5042672;28;20448;-51
2024/04/02 00:13:55;;;;;;;14.00;5.50;;;;;;;;;;5025997;28;20041;-54
2024/04/02 00:16:21;;;;;;;16.20;4.43;;;;;;;;;;4993758;28;20038;-50
2024/04/02 00:18:47;;;;;;;16.15;5.15;;;;;;;;;;5027631;28;20083;-50
2024/04/02 00:21:13;;;;;;;20.00;4.75;;;;;;;;;;5027136;28;20608;-49
2024/04/02 00:23:41;;;;;;;13.85;5.00;;;;;;;;;;5037622;28;20055;-51
2024/04/02 00:26:07;;;;;;;17.23;5.05;;;;;;;;;;5028091;28;20037;-53
2024/04/02 00:28:33;;;;;;;22.23;5.00;;;;;;;;;;5025661;28;20038;-51
2024/04/02 00:31:00;;;;;;;15.63;4.60;;;;;;;;;;5008795;28;20039;-53
2024/04/02 00:33:26;;;;;;;12.77;4.78;;;;;;;;;;5023794;28;20519;-52
2024/04/02 00:35:59;;;;;;;14.63;4.75;;;;;;;;;;5024989;28;20037;-48
2024/04/02 00:38:24;;;;;;;13.20;5.20;;;;;;;;;;5028131;28;20042;-49
2024/04/02 00:40:52;;;;;;;21.27;4.82;;;;;;;;;;5027993;28;20040;-50
2024/04/02 00:43:18;;;;;;;17.20;5.43;;;;;;;;;;5026219;28;20103;-48
2024/04/02 00:45:43;;;;;;;19.17;4.95;;;;;;;;;;5025461;28;20034;-54
2024/04/02 00:48:10;;;;;;;16.15;4.70;;;;;;;;;;5010908;28;20137;-53
2024/04/02 00:50:36;;;;;;;11.73;4.57;;;;;;;;;;5027638;28;20037;-50
2024/04/02 00:53:02;;;;;;;13.18;4.97;;;;;;;;;;5023430;28;20037;-52
2024/04/02 00:55:28;;;;;;;16.55;4.95;;;;;;;;;;5027345;28;20559;-51
2024/04/02 00:57:54;;;;;;;15.60;5.45;;;;;;;;;;5026024;28;20483;-50
2024/04/02 01:00:20;;;;;;;14.23;4.88;;;;;;;;;;5027644;28;20033;-53
2024/04/02 01:02:45;;;;;;;14.77;5.35;;;;;;;;;;5027783;28;20033;-48
2024/04/02 01:05:11;;;;;;;16.33;5.00;;;;;;;;;;5023268;28;20046;-50
2024/04/02 01:07:39;;;;;;;16.10;5.35;;;;;;;;;;5026784;28;20041;-49
2024/04/02 01:10:05;;;;;;;23.45;5.90;;;;;;;;;;5026711;28;20049;-50
2024/04/02 01:12:31;;;;;;;14.27;5.75;;;;;;;;;;5027434;28;20107;-50
2024/04/02 01:14:57;;;;;;;18.30;5.75;;;;;;;;;;5027753;28;20089;-52
2024/04/02 01:17:23;;;;;;;12.88;5.47;;;;;;;;;;5027122;28;20034;-50
2024/04/02 01:19:48;;;;;;;17.92;6.38;;;;;;;;;;5027537;28;20044;-52
2024/04/02 01:22:14;;;;;;;15.45;6.28;;;;;;;;;;5009115;28;20034;-52
2024/04/02 01:24:42;;;;;;;16.92;4.78;;;;;;;;;;5025584;28;20044;-51
2024/04/02 01:27:08;;;;;;;21.23;5.90;;;;;;;;;;5026615;28;20044;-49
2024/04/02 01:29:34;;;;;;;16.60;5.18;;;;;;;;;;5027894;28;20037;-49
2024/04/02 01:31:59;;;;;;;13.75;5.30;;;;;;;;;;5026036;28;20061;-52
2024/04/02 01:34:25;;;;;;;19.52;6.63;;;;;;;;;;5025522;28;20186;-53
2024/04/02 01:36:50;;;;;;;16.20;5.97;;;;;;;;;;5022097;28;20038;-52
2024/04/02 01:39:18;;;;;;;16.40;5.50;;;;;;;;;;5024774;28;20029;-48
2024/04/02 01:41:44;;;;;;;19.35;6.22;;;;;;;;;;5025206;28;20033;-55
2024/04/02 01:44:10;;;;;;;17.85;4.97;;;;;;;;;;5042247;28;20456;-50
2024/04/02 01:46:35;;;;;;;17.75;6.78;;;;;;;;;;5027005;28;20091;-52
2024/04/02 01:49:01;;;;;;;18.83;5.97;;;;;;;;;;5024526;28;20045;-51
2024/04/02 01:51:27;;;;;;;21.05;5.40;;;;;;;;;;5026453;28;20171;-51
2024/04/02 01:53:53;;;;;;;14.93;5.63;;;;;;;;;;5025996;28;20045;-48
2024/04/02 01:56:19;;;;;;;14.43;5.13;;;;;;;;;;5024808;28;20037;-49
2024/04/02 01:58:44;;;;;;;24.65;6.22;;;;;;;;;;5039659;28;20076;-51
2024/04/02 02:01:10;;;;;;;26.92;6.82;;;;;;;;;;5025069;28;20034;-52
2024/04/02 02:03:36;;;;;;;16.40;5.68;;;;;;;;;;5026493;28;20070;-49
2024/04/02 02:06:02;;;;;;;16.63;5.78;;;;;;;;;;5023730;28;20042;-49
2024/04/02 02:08:28;;;;;;;16.30;4.90;;;;;;;;;;5024208;28;20041;-48
2024/04/02 02:10:55;;;;;;;21.90;6.05;;;;;;;;;;5026250;28;20531;-54
2024/04/02 02:13:21;;;;;;;19.20;5.50;;;;;;;;;;5025597;28;20044;-52
2024/04/02 02:15:57;;;;;;;18.02;5.45;;;;;;;;;;5024248;28;20033;-50
2024/04/02 02:18:24;;;;;;;17.73;5.45;;;;;;;;;;5026391;28;20037;-49
2024/04/02 02:20:49;;;;;;;13.05;6.03;;;;;;;;;;5024103;28;20038;-51
2024/04/02 02:23:15;;;;;;;14.65;5.60;;;;;;;;;;5027054;28;20041;-52
2024/04/02 02:25:41;;;;;;;22.45;5.82;;;;;;;;;;5032941;28;20405;-53
2024/04/02 02:28:06;;;;;;;20.52;6.07;;;;;;;;;;5014418;28;20045;-51
2024/04/02 02:30:32;;;;;;;17.85;4.82;;;;;;;;;;5023548;28;20045;-57
2024/04/02 02:32:58;;;;;;;14.90;6.30;;;;;;;;;;5025355;28;20155;-54
2024/04/02 02:35:23;;;;;;;17.65;5.90;;;;;;;;;;5025360;28;20523;-56
2024/04/02 02:37:49;;;;;;;14.27;5.43;;;;;;;;;;5025658;28;20029;-53
2024/04/02 02:40:15;;;;;;;17.27;4.97;;;;;;;;;;5007206;28;20037;-52
2024/04/02 02:42:41;;;;;;;15.18;5.80;;;;;;;;;;4992650;28;20033;-48
2024/04/02 02:45:06;;;;;;;20.45;5.40;;;;;;;;;;5026165;28;20033;-51
2024/04/02 02:47:32;;;;;;;20.17;6.22;;;;;;;;;;5026392;28;20115;-54
2024/04/02 02:49:58;;;;;;;16.08;5.70;;;;;;;;;;5025892;28;20040;-54
2024/04/02 02:52:24;;;;;;;18.10;5.45;;;;;;;;;;5025287;28;20040;-55
2024/04/02 02:54:49;;;;;;;15.82;5.75;;;;;;;;;;5008312;28;20040;-54
2024/04/02 02:57:15;;;;;;;16.55;5.60;;;;;;;;;;5025169;28;20029;-52
2024/04/02 02:59:41;;;;;;;13.52;5.80;;;;;;;;;;5025025;28;20579;-52
2024/04/02 03:02:06;;;;;;;18.33;6.55;;;;;;;;;;5022647;28;20033;-50
2024/04/02 03:04:32;;;;;;;22.30;5.72;;;;;;;;;;5026524;28;20029;-49
2024/04/02 03:06:58;;;;;;;17.00;5.68;;;;;;;;;;5023925;28;20453;-50
2024/04/02 03:09:23;;;;;;;16.88;6.47;;;;;;;;;;5026619;28;20033;-51
2024/04/02 03:11:49;;;;;;;16.13;6.10;;;;;;;;;;5006975;28;20045;-53
2024/04/02 03:14:15;;;;;;;16.08;5.97;;;;;;;;;;5008162;28;20029;-53
2024/04/02 03:16:41;;;;;;;18.00;6.18;;;;;;;;;;5023715;28;20045;-50
2024/04/02 03:19:06;;;;;;;20.38;5.07;;;;;;;;;;5025735;28;20650;-53
2024/04/02 03:21:32;;;;;;;20.08;6.25;;;;;;;;;;5011603;28;20847;-51
2024/04/02 03:23:58;;;;;;;21.05;5.57;;;;;;;;;;5028619;28;20061;-50
2024/04/02 03:26:23;;;;;;;18.85;6.82;;;;;;;;;;5023362;28;20266;-50
2024/04/02 03:28:49;;;;;;;18.13;5.88;;;;;;;;;;5007913;28;20072;-51
2024/04/02 03:31:15;;;;;;;16.63;5.60;;;;;;;;;;5025185;28;20107;-52
2024/04/02 03:33:41;;;;;;;16.33;5.07;;;;;;;;;;5022776;28;20559;-52
2024/04/02 03:36:08;;;;;;;20.55;5.45;;;;;;;;;;5022724;28;20061;-52
2024/04/02 03:38:34;;;;;;;19.08;5.40;;;;;;;;;;5006043;28;20596;-54
2024/04/02 03:41:09;;;;;;;18.17;5.88;;;;;;;;;;5023857;28;20076;-51
2024/04/02 03:43:35;;;;;;;18.10;6.00;;;;;;;;;;5022915;28;20079;-51
2024/04/02 03:46:05;;;;;;;14.93;5.53;;;;;;;;;;5023727;28;20045;-53
2024/04/02 03:48:31;;;;;;;20.40;6.43;;;;;;;;;;5023636;28;20037;-51
2024/04/02 03:50:57;;;;;;;15.48;5.30;;;;;;;;;;5022353;28;20033;-55
2024/04/02 03:53:23;;;;;;;16.05;5.90;;;;;;;;;;5025301;28;20037;-56
2024/04/02 03:55:54;;;;;;;18.45;5.65;;;;;;;;;;5024773;28;20568;-55
2024/04/02 03:58:20;;;;;;;18.15;5.65;;;;;;;;;;5024565;28;20034;-52
2024/04/02 04:00:46;;;;;;;19.98;5.90;;;;;;;;;;5022991;28;20063;-49
2024/04/02 04:03:12;;;;;;;16.95;6.13;;;;;;;;;;5024257;28;20053;-55
2024/04/02 04:05:37;;;;;;;26.85;6.18;;;;;;;;;;5002717;28;20045;-52
2024/04/02 04:08:03;;;;;;;16.30;5.93;;;;;;;;;;5020741;28;20041;-56
2024/04/02 04:10:29;;;;;;;21.33;5.80;;;;;;;;;;5025766;28;20591;-49
2024/04/02 04:12:55;;;;;;;19.98;5.68;;;;;;;;;;5027313;28;20116;-51
2024/04/02 04:15:20;;;;;;;18.40;5.18;;;;;;;;;;5027606;28;20075;-53
2024/04/02 04:17:46;;;;;;;16.98;5.70;;;;;;;;;;5010731;28;20075;-53
2024/04/02 04:20:12;;;;;;;17.25;5.93;;;;;;;;;;5027269;28;20076;-53
2024/04/02 04:22:37;;;;;;;25.58;5.38;;;;;;;;;;5027855;28;20111;-57
2024/04/02 04:25:04;;;;;;;17.55;5.38;;;;;;;;;;5028792;28;20036;-57
2024/04/02 04:27:36;;;;;;;23.30;7.03;;;;;;;;;;5026942;28;20692;-53
2024/04/02 04:30:05;;;;;;;16.75;5.50;;;;;;;;;;5027272;28;20045;-56
2024/04/02 04:32:32;;;;;;;20.55;6.25;;;;;;;;;;5029339;28;20041;-52
2024/04/02 04:34:58;;;;;;;20.48;5.50;;;;;;;;;;5010341;28;20044;-56
2024/04/02 04:37:23;;;;;;;18.30;5.63;;;;;;;;;;5026825;28;20033;-56
2024/04/02 04:39:49;;;;;;;20.92;6.40;;;;;;;;;;5025655;28;20107;-55
2024/04/02 04:42:15;;;;;;;18.83;5.65;;;;;;;;;;5034595;28;20052;-54
2024/04/02 04:44:44;;;;;;;23.17;6.00;;;;;;;;;;5032156;28;20042;-50
2024/04/02 04:47:13;;;;;;;21.85;6.32;;;;;;;;;;5029011;28;20037;-51
2024/04/02 04:49:39;;;;;;;24.08;6.15;;;;;;;;;;5044217;28;20076;-49
2024/04/02 04:52:04;;;;;;;14.57;6.18;;;;;;;;;;5043864;28;20029;-51
2024/04/02 04:54:30;;;;;;;26.95;7.00;;;;;;;;;;5026539;28;20045;-53
2024/04/02 04:56:56;;;;;;;27.17;6.45;;;;;;;;;;5026924;28;20055;-50
2024/04/02 04:59:23;;;;;;;25.52;6.00;;;;;;;;;;5043286;28;20610;-53
2024/04/02 05:01:48;;;;;;;19.80;5.97;;;;;;;;;;5027326;28;20044;-48
2024/04/02 05:04:14;;;;;;;22.40;5.88;;;;;;;;;;5028262;28;20041;-55
2024/04/02 05:06:43;;;;;;;23.23;6.32;;;;;;;;;;5026392;28;20412;-48
2024/04/02 05:09:11;;;;;;;;;;;;;;;;;;5028952;28;20116;-49
2024/04/02 05:11:37;;;;;;;19.75;6.18;;;;;;;;;;5043690;28;20390;-54
2024/04/02 05:14:03;;;;;;;27.17;6.50;;;;;;;;;;5027171;28;20126;-49
2024/04/02 05:16:29;;;;;;;18.75;6.03;;;;;;;;;;5027812;28;20487;-49
2024/04/02 05:18:54;;;;;;;17.02;6.10;;;;;;;;;;5026698;28;20059;-47
2024/04/02 05:21:20;;;;;;;24.30;7.20;;;;;;;;;;5026695;28;20111;-51
2024/04/02 05:23:46;;;;;;;24.90;6.28;;;;;;;;;;5026005;28;20114;-53
2024/04/02 05:26:13;;;;;;;22.73;6.25;;;;;;;;;;5027243;28;20124;-48
2024/04/02 05:28:40;;;;;;;19.42;6.68;;;;;;;;;;5027925;28;20053;-50
2024/04/02 05:31:06;;;;;;;27.75;7.53;;;;;;;;;;5026466;28;20576;-49
2024/04/02 05:33:31;;;;;;;25.55;6.20;;;;;;;;;;5025885;28;20140;-49
2024/04/02 05:35:57;;;;;;;20.02;6.70;;;;;;;;;;5026927;28;20475;-48
2024/04/02 05:38:23;;;;;;;24.20;7.20;;;;;;;;;;5028106;28;20510;-46
2024/04/02 05:40:48;;;;;;;28.88;7.35;;;;;;;;;;5026719;28;20380;-49
2024/04/02 05:43:14;;;;;;;24.25;6.38;;;;;;;;;;5025518;28;20041;-47
2024/04/02 05:45:40;;;;;;;23.67;6.63;;;;;;;;;;5027411;28;20033;-49
2024/04/02 05:48:06;;;;;;;25.08;6.43;;;;;;;;;;5019984;28;20041;-50
2024/04/02 05:50:32;;;;;;;25.40;7.65;;;;;;;;;;5011313;28;20531;-49
2024/04/02 05:52:57;;;;;;;28.75;7.25;;;;;;;;;;4989602;28;20037;-49
2024/04/02 05:55:23;;;;;;;29.40;6.50;;;;;;;;;;5008405;28;20054;-47
2024/04/02 05:57:50;;;;;;;32.88;6.93;;;;;;;;;;5025895;28;20037;-47
2024/04/02 06:00:15;;;;;;;28.23;6.55;;;;;;;;;;5042433;28;20040;-48
2024/04/02 06:02:44;;;;;;;27.58;6.68;;;;;;;;;;5026119;28;20551;-50
2024/04/02 06:05:10;;;;;;;24.60;6.95;;;;;;;;;;5027207;28;20112;-49
2024/04/02 06:07:35;;;;;;;27.70;7.15;;;;;;;;;;5026694;28;20116;-52
2024/04/02 06:10:01;;;;;;;31.42;6.57;;;;;;;;;;5025510;28;20512;-52
2024/04/02 06:12:29;;;;;;;21.13;6.60;;;;;;;;;;5026834;28;20033;-51
2024/04/02 06:14:55;;;;;;;23.08;6.93;;;;;;;;;;5026905;28;20060;-49
2024/04/02 06:17:21;;;;;;;18.92;5.90;;;;;;;;;;5042159;28;20091;-52
2024/04/02 06:19:47;;;;;;;24.50;6.45;;;;;;;;;;5025612;28;20558;-48
2024/04/02 06:22:13;;;;;;;31.85;7.82;;;;;;;;;;5042162;28;20130;-49
2024/04/02 06:24:39;;;;;;;25.50;7.47;;;;;;;;;;5026188;28;20508;-49
2024/04/02 06:27:05;;;;;;;27.58;7.00;;;;;;;;;;5026199;28;20060;-46
2024/04/02 06:29:31;;;;;;;21.10;6.95;;;;;;;;;;5022644;28;20087;-51
2024/04/02 06:31:57;;;;;;;30.75;7.32;;;;;;;;;;5026528;28;20033;-48
2024/04/02 06:34:23;;;;;;;29.70;7.47;;;;;;;;;;5026181;28;20080;-52
2024/04/02 06:36:48;;;;;;;24.63;8.52;;;;;;;;;;5025342;28;20065;-49
2024/04/02 06:39:14;;;;;;;32.22;7.63;;;;;;;;;;5026739;28;20113;-47
2024/04/02 06:41:40;;;;;;;26.63;7.63;;;;;;;;;;5026288;28;20140;-50
2024/04/02 06:44:06;;;;;;;27.98;7.30;;;;;;;;;;5026433;28;20607;-49
2024/04/02 06:46:31;;;;;;;42.17;8.57;;;;;;;;;;5026321;28;20045;-49
2024/04/02 06:49:00;;;;;;;48.50;8.48;;;;;;;;;;5024765;28;20702;-46
2024/04/02 06:51:26;;;;;;;27.52;7.78;;;;;;;;;;5025486;28;20033;-52
2024/04/02 06:53:53;;;;;;;23.95;6.93;;;;;;;;;;5008773;28;20634;-50
2024/04/02 06:56:18;;;;;;;26.63;7.68;;;;;;;;;;5026153;28;20073;-49
2024/04/02 06:58:44;;;;;;;27.67;7.47;;;;;;;;;;5008483;28;20057;-49
2024/04/02 07:01:11;;;;;;;36.67;8.90;;;;;;;;;;5008468;28;20607;-49
2024/04/02 07:03:37;;;;;;;23.42;8.18;;;;;;;;;;5026391;28;20037;-47
2024/04/02 07:06:03;;;;;;;34.47;8.63;;;;;;;;;;5020659;28;20539;-47
2024/04/02 07:08:29;;;;;;;30.40;8.05;;;;;;;;;;5021969;28;20096;-47
2024/04/02 07:10:59;;;;;;;24.13;7.53;;;;;;;;;;5006000;28;20034;-46
2024/04/02 07:13:25;;;;;;;35.45;8.20;;;;;;;;;;5007420;28;20560;-49
2024/04/02 07:15:51;;;;;;;23.58;7.90;;;;;;;;;;5014090;28;20042;-46
2024/04/02 07:18:17;;;;;;;29.42;8.15;;;;;;;;;;5024669;28;20087;-49
2024/04/02 07:20:43;;;;;;;33.75;8.23;;;;;;;;;;5024323;28;20037;-49
2024/04/02 07:23:09;;;;;;;35.50;8.10;;;;;;;;;;5023987;28;20128;-50
2024/04/02 07:25:35;;;;;;;36.50;8.73;;;;;;;;;;5040334;28;20041;-51
2024/04/02 07:28:00;;;;;;;33.33;10.38;;;;;;;;;;5024311;28;20068;-48
2024/04/02 07:30:27;;;;;;;31.83;9.43;;;;;;;;;;5025739;28;20124;-47
2024/04/02 07:32:53;;;;;;;40.08;9.10;;;;;;;;;;5026036;28;20427;-50
2024/04/02 07:35:18;;;;;;;37.85;9.18;;;;;;;;;;5008196;28;20029;-49
2024/04/02 07:37:44;;;;;;;36.80;9.50;;;;;;;;;;5028039;28;20520;-48
2024/04/02 07:40:10;;;;;;;36.40;9.32;;;;;;;;;;5024540;28;20117;-49
2024/04/02 07:42:35;;;;;;;37.70;9.90;;;;;;;;;;5024156;28;20065;-48
2024/04/02 07:45:01;;;;;;;32.65;8.45;;;;;;;;;;5007769;28;20483;-46
2024/04/02 07:47:28;;;;;;;30.10;9.15;;;;;;;;;;5024575;28;20084;-51
2024/04/02 07:49:53;;;;;;;35.95;8.30;;;;;;;;;;5038474;28;20519;-55
2024/04/02 07:52:20;;;;;;;29.48;9.20;;;;;;;;;;5027891;28;20060;-51
2024/04/02 07:54:46;;;;;;;38.42;9.18;;;;;;;;;;5044586;28;20803;-52
2024/04/02 07:57:11;;;;;;;37.35;8.45;;;;;;;;;;5028344;28;20048;-53
2024/04/02 07:59:37;;;;;;;34.13;8.90;;;;;;;;;;5029572;28;20045;-53
2024/04/02 08:02:03;;;;;;;37.17;9.73;;;;;;;;;;5029279;28;20176;-51
2024/04/02 08:04:29;;;;;;;30.52;9.05;;;;;;;;;;5044668;28;20374;-51
2024/04/02 08:06:54;;;;;;;27.13;9.30;;;;;;;;;;5027778;28;20057;-50
2024/04/02 08:09:20;;;;;;;30.55;8.43;;;;;;;;;;5008430;28;20033;-49
2024/04/02 08:11:47;;;;;;;36.38;8.45;;;;;;;;;;5007806;28;20041;-50
2024/04/02 08:14:14;;;;;;;24.00;7.50;;;;;;;;;;5024054;28;20082;-51
2024/04/02 08:16:40;;;;;;;28.00;8.73;;;;;;;;;;5007756;28;20045;-56
2024/04/02 08:19:06;;;;;;;30.50;7.82;;;;;;;;;;5040977;28;20041;-51
2024/04/02 08:21:31;;;;;;;29.95;8.50;;;;;;;;;;5028711;28;20120;-51
2024/04/02 08:23:57;;;;;;;41.78;8.25;;;;;;;;;;5028598;28;20063;-53
2024/04/02 08:26:23;;;;;;;39.75;8.60;;;;;;;;;;5027489;28;20041;-51
2024/04/02 08:28:49;;;;;;;33.78;7.13;;;;;;;;;;5026767;28;20083;-56
2024/04/02 08:31:15;;;;;;;38.78;8.32;;;;;;;;;;5028323;28;20033;-53
2024/04/02 08:33:41;;;;;;;43.20;8.20;;;;;;;;;;5028965;28;20041;-56
2024/04/02 08:36:07;;;;;;;34.72;7.78;;;;;;;;;;5028834;28;20201;-52
2024/04/02 08:38:33;;;;;;;38.13;8.80;;;;;;;;;;5028317;28;20064;-53
2024/04/02 08:41:05;;;;;;;36.22;8.70;;;;;;;;;;5027115;28;20045;-52
2024/04/02 08:43:31;;;;;;;38.83;7.40;;;;;;;;;;5028531;28;20038;-51
2024/04/02 08:45:58;;;;;;;45.13;7.90;;;;;;;;;;5028490;28;20180;-53
2024/04/02 08:48:27;;;;;;;29.70;8.27;;;;;;;;;;5028244;28;20131;-50
2024/04/02 08:50:55;;;;;;;38.17;8.38;;;;;;;;;;5028768;28;20106;-51
2024/04/02 08:53:21;;;;;;;35.10;8.18;;;;;;;;;;5028660;28;20029;-54
2024/04/02 08:55:47;;;;;;;35.50;7.70;;;;;;;;;;5027602;28;20535;-56
2024/04/02 08:58:14;;;;;;;40.45;8.35;;;;;;;;;;5026370;28;20069;-56
2024/04/02 09:00:40;;;;;;;32.28;7.22;;;;;;;;;;5027769;28;20108;-53
2024/04/02 09:03:12;;;;;;;39.78;8.75;;;;;;;;;;5027009;28;20033;-53
2024/04/02 09:05:38;;;;;;;29.70;7.30;;;;;;;;;;5010432;28;20037;-52
2024/04/02 09:08:09;;;;;;;41.35;7.82;;;;;;;;;;5028495;28;20424;-51
2024/04/02 09:10:35;;;;;;;36.97;8.02;;;;;;;;;;5033328;28;20045;-52
2024/04/02 09:13:00;;;;;;;31.40;7.50;;;;;;;;;;5043865;28;20045;-56
2024/04/02 09:15:26;;;;;;;30.02;7.30;;;;;;;;;;5028811;28;20087;-52
2024/04/02 09:17:52;;;;;;;42.75;8.55;;;;;;;;;;5027158;28;20183;-54
2024/04/02 09:20:18;;;;;;;35.40;7.53;;;;;;;;;;5027854;28;20091;-52
2024/04/02 09:22:45;;;;;;;37.45;8.75;;;;;;;;;;5028007;28;20072;-54
2024/04/02 09:25:11;;;;;;;37.45;8.68;;;;;;;;;;5028196;28;20033;-53
2024/04/02 09:27:38;;;;;;;40.58;7.88;;;;;;;;;;5027041;28;20116;-47
2024/04/02 09:30:04;;;;;;;37.42;7.93;;;;;;;;;;5026526;28;20073;-53
2024/04/02 09:32:34;;;;;;;40.80;8.13;;;;;;;;;;5042995;28;20124;-51
2024/04/02 09:34:59;;;;;;;40.75;8.27;;;;;;;;;;5028595;28;20064;-53
2024/04/02 09:37:36;;;;;;;46.40;10.70;;;;;;;;;;5028130;28;20041;-52
2024/04/02 09:40:03;;;;;;;36.47;8.00;;;;;;;;;;5028040;28;20166;-52
2024/04/02 09:42:32;;;;;;;42.95;8.48;;;;;;;;;;5027485;28;20412;-57
2024/04/02 09:44:59;;;;;;;38.13;8.68;;;;;;;;;;5027895;28;20114;-54
2024/04/02 09:47:25;;;;;;;42.22;8.75;;;;;;;;;;5026592;28;20029;-55
2024/04/02 09:49:52;;;;;;;38.08;7.50;;;;;;;;;;5027690;28;20519;-50
2024/04/02 09:52:18;;;;;;;31.85;7.80;;;;;;;;;;5026998;28;20037;-50
2024/04/02 09:54:45;;;;;;;31.48;8.20;;;;;;;;;;5027179;28;20060;-52
2024/04/02 09:57:13;;;;;;;35.73;7.93;;;;;;;;;;5026704;28;20041;-57
2024/04/02 09:59:39;;;;;;;39.00;8.55;;;;;;;;;;5009369;28;20272;-52
2024/04/02 10:02:07;;;;;;;36.38;8.40;;;;;;;;;;5042513;28;20076;-50
2024/04/02 10:04:33;;;;;;;33.88;7.80;;;;;;;;;;5042410;28;20033;-52
2024/04/02 10:07:00;;;;;;;31.40;8.10;;;;;;;;;;5042446;28;20508;-50
2024/04/02 10:09:26;;;;;;;34.67;7.57;;;;;;;;;;5026547;28;20041;-55
2024/04/02 10:11:52;;;;;;;38.40;8.25;;;;;;;;;;5027037;28;20049;-52
2024/04/02 10:14:20;;;;;;;42.70;8.23;;;;;;;;;;5026905;28;20041;-53
2024/04/02 10:16:50;;;;;;;32.10;8.55;;;;;;;;;;5042313;28;20040;-51
2024/04/02 10:19:19;;;;;;;42.42;8.35;;;;;;;;;;5015553;28;20040;-49
2024/04/02 10:21:46;;;;;;;32.72;8.30;;;;;;;;;;5025570;28;20041;-51
2024/04/02 10:24:15;;;;;;;42.97;9.00;;;;;;;;;;5025657;28;20057;-56
2024/04/02 10:26:41;;;;;;;44.67;8.55;;;;;;;;;;5026954;28;20033;-51
2024/04/02 10:29:07;;;;;;;33.72;8.25;;;;;;;;;;5024942;28;20140;-51
2024/04/02 10:31:42;;;;;;;40.20;9.10;;;;;;;;;;5024992;28;20049;-54
2024/04/02 10:34:08;;;;;;;36.45;8.70;;;;;;;;;;5025048;28;20064;-52
2024/04/02 10:36:35;;;;;;;44.30;8.90;;;;;;;;;;5026819;28;20033;-53
2024/04/02 10:39:00;;;;;;;40.38;9.00;;;;;;;;;;5026605;28;20034;-49
2024/04/02 10:41:29;;;;;;;42.90;9.75;;;;;;;;;;5022961;28;20037;-50
2024/04/02 10:43:54;;;;;;;35.47;8.07;;;;;;;;;;5025203;28;20044;-50
2024/04/02 10:46:24;;;;;;;41.90;7.97;;;;;;;;;;5024871;28;20041;-54
2024/04/02 10:48:49;;;;;;;34.67;8.20;;;;;;;;;;5041239;28;20040;-51
2024/04/02 10:51:15;;;;;;;30.40;8.93;;;;;;;;;;5026596;28;20045;-50
2024/04/02 10:53:41;;;;;;;33.53;8.93;;;;;;;;;;5041818;28;20271;-51
2024/04/02 10:56:07;;;;;;;48.78;8.98;;;;;;;;;;5041185;28;20110;-51
2024/04/02 10:58:34;;;;;;;40.95;7.47;;;;;;;;;;5026322;28;20556;-50
2024/04/02 11:01:00;;;;;;;34.85;8.00;;;;;;;;;;5024569;28;20041;-49
2024/04/02 11:03:26;;;;;;;31.70;8.18;;;;;;;;;;5026009;28;20111;-50
2024/04/02 11:05:52;;;;;;;32.05;7.82;;;;;;;;;;5025992;28;20041;-54
2024/04/02 11:08:18;;;;;;;35.33;7.93;;;;;;;;;;5024371;28;20041;-51
2024/04/02 11:10:50;;;;;;;32.42;7.80;;;;;;;;;;5025566;28;20767;-51
2024/04/02 11:13:36;;;;;;;37.13;7.93;;;;;;;;;;5025201;28;20040;-49
2024/04/02 11:16:01;;;;;;;37.30;8.40;;;;;;;;;;5024405;28;20045;-51
2024/04/02 11:18:28;;;;;;;36.78;7.47;;;;;;;;;;5024460;28;20176;-49
2024/04/02 11:20:57;;;;;;;39.67;7.90;;;;;;;;;;5023659;28;20528;-48
2024/04/02 11:26:15;;;;;;;28.00;7.63;;;;;;;;;;5025846;28;20052;-49
2024/04/02 11:28:41;;;;;;;39.33;9.25;;;;;;;;;;5040971;28;20030;-54
2024/04/02 11:31:08;;;;;;;35.33;7.70;;;;;;;;;;4998864;28;20041;-49
2024/04/02 11:33:34;;;;;;;25.63;6.90;;;;;;;;;;5006114;28;20448;-52
2024/04/02 11:36:01;;;;;;;35.08;7.93;;;;;;;;;;5004309;28;20042;-49
2024/04/02 11:38:27;;;;;;;43.47;8.05;;;;;;;;;;5021037;28;20034;-48
2024/04/02 11:40:53;;;;;;;39.42;7.88;;;;;;;;;;5009551;28;20049;-55
2024/04/02 11:43:19;;;;;;;41.17;7.78;;;;;;;;;;5026012;28;20030;-51
2024/04/02 11:45:45;;;;;;;39.42;8.65;;;;;;;;;;5040819;28;20026;-50
2024/04/02 11:48:11;;;;;;;35.63;8.38;;;;;;;;;;5024043;28;20029;-55
2024/04/02 11:50:36;;;;;;;32.22;8.05;;;;;;;;;;5025703;28;20033;-51
2024/04/02 11:53:02;;;;;;;35.38;8.10;;;;;;;;;;5040151;28;20128;-54
2024/04/02 11:55:28;;;;;;;37.83;7.93;;;;;;;;;;5025439;28;20025;-55
2024/04/02 12:00:38;;;;;;;30.95;7.82;;;;;;;;;;5023997;28;20592;-53
2024/04/02 12:03:04;;;;;;;43.42;8.52;;;;;;;;;;5023374;28;20136;-51
2024/04/02 12:05:31;;;;;;;41.20;7.63;;;;;;;;;;5040717;28;20512;-50
2024/04/02 12:07:57;;;;;;;;;;;;;;;;;;5024354;28;20040;-53
2024/04/02 12:10:23;;;;;;;40.28;7.47;;;;;;;;;;5025649;28;19913;-50
2024/04/02 12:12:51;;;;;;;35.00;7.50;;;;;;;;;;5033275;28;20037;-52
2024/04/02 12:15:16;;;;;;;50.45;8.98;;;;;;;;;;5007874;28;20171;-52
2024/04/02 12:17:42;;;;;;;35.28;7.82;;;;;;;;;;5024309;28;20572;-52
2024/04/02 12:20:09;;;;;;;40.40;7.93;;;;;;;;;;5040700;28;20045;-55
2024/04/02 12:22:35;;;;;;;42.17;8.15;;;;;;;;;;4987369;28;20038;-51
2024/04/02 12:25:00;;;;;;;42.47;8.23;;;;;;;;;;5014369;28;20099;-50
2024/04/02 12:27:27;;;;;;;45.80;7.95;;;;;;;;;;5025306;28;20500;-52
2024/04/02 12:29:53;;;;;;;38.40;7.18;;;;;;;;;;5040449;28;20047;-51
2024/04/02 12:32:19;;;;;;;33.78;7.88;;;;;;;;;;5024265;28;20119;-49
2024/04/02 12:34:49;;;;;;;42.22;7.88;;;;;;;;;;5007237;28;20118;-51
2024/04/02 12:37:15;;;;;;;40.65;7.72;;;;;;;;;;5007578;28;20045;-52
2024/04/02 12:39:43;;;;;;;44.50;7.43;;;;;;;;;;5009608;28;20558;-50
2024/04/02 12:42:09;;;;;;;;;;;;;;;;;;5021142;28;20123;-53
2024/04/02 12:44:34;;;;;;;42.10;7.35;;;;;;;;;;5028555;28;20387;-56
2024/04/02 12:47:00;;;;;;;37.20;7.70;;;;;;;;;;5028777;28;20564;-54
2024/04/02 12:49:26;;;;;;;32.67;7.53;;;;;;;;;;5029066;28;20120;-50
2024/04/02 12:51:52;;;;;;;39.13;7.40;;;;;;;;;;5028981;28;20052;-51
2024/04/02 12:54:18;;;;;;;40.33;7.38;;;;;;;;;;5041818;28;20045;-52
2024/04/02 12:56:44;;;;;;;40.20;8.18;;;;;;;;;;5028062;28;20698;-51
2024/04/02 12:59:10;;;;;;;42.38;8.38;;;;;;;;;;5028388;28;20037;-53
2024/04/02 13:01:35;;;;;;;44.78;8.65;;;;;;;;;;5028368;28;20562;-50
2024/04/02 13:04:01;;;;;;;41.63;8.55;;;;;;;;;;5028140;28;20114;-50
2024/04/02 13:06:27;;;;;;;40.10;9.88;;;;;;;;;;5026695;28;20067;-48
2024/04/02 13:08:53;;;;;;;45.85;7.97;;;;;;;;;;5043127;28;20037;-52
2024/04/02 13:11:18;;;;;;;55.90;8.65;;;;;;;;;;5026564;28;20040;-52
2024/04/02 13:13:44;;;;;;;48.63;8.88;;;;;;;;;;5027940;28;20610;-52
2024/04/02 13:16:33;;;;;;;46.22;7.88;;;;;;;;;;5027009;28;20049;-52
2024/04/02 13:19:00;;;;;;;50.50;8.80;;;;;;;;;;5023404;28;20048;-49
2024/04/02 13:21:25;;;;;;;36.45;7.82;;;;;;;;;;5027704;28;20029;-54
2024/04/02 13:23:51;;;;;;;41.22;8.02;;;;;;;;;;5027568;28;20060;-47
2024/04/02 13:26:17;;;;;;;43.65;8.70;;;;;;;;;;5025473;28;20536;-51
2024/04/02 13:28:42;;;;;;;43.45;8.13;;;;;;;;;;5042943;28;20136;-53
2024/04/02 13:31:09;;;;;;;38.47;8.15;;;;;;;;;;5027834;28;20064;-54
2024/04/02 13:33:35;;;;;;;44.20;8.52;;;;;;;;;;5027003;28;20098;-54
2024/04/02 13:36:20;;;;;;;48.72;8.40;;;;;;;;;;5027292;28;20037;-52
2024/04/02 13:38:46;;;;;;;41.45;7.82;;;;;;;;;;5026376;28;20053;-57
2024/04/02 13:41:13;;;;;;;41.75;8.38;;;;;;;;;;5042702;28;20087;-54
2024/04/02 13:43:39;;;;;;;38.20;8.05;;;;;;;;;;5025481;28;20056;-53
2024/04/02 13:46:04;;;;;;;43.25;8.45;;;;;;;;;;5027288;28;20706;-54
2024/04/02 13:48:31;;;;;;;37.83;7.55;;;;;;;;;;5026168;28;20497;-53
2024/04/02 13:51:12;;;;;;;38.85;7.05;;;;;;;;;;5026356;28;20505;-53
2024/04/02 13:53:38;;;;;;;34.55;7.53;;;;;;;;;;5025464;28;20467;-54
2024/04/02 13:56:04;;;;;;;38.45;7.68;;;;;;;;;;5025451;28;20412;-56
2024/04/02 13:58:30;;;;;;;44.70;8.02;;;;;;;;;;5025773;28;20040;-49
2024/04/02 14:00:59;;;;;;;46.05;8.10;;;;;;;;;;5025839;28;20037;-54
2024/04/02 14:03:25;;;;;;;36.55;7.15;;;;;;;;;;5027312;28;20029;-49
2024/04/02 14:06:03;;;;;;;48.20;8.50;;;;;;;;;;5026960;28;20041;-50
2024/04/02 14:08:29;;;;;;;41.53;8.38;;;;;;;;;;5009046;28;20037;-52
2024/04/02 14:10:56;;;;;;;52.22;8.55;;;;;;;;;;5026824;28;20029;-53
2024/04/02 14:13:23;;;;;;;42.70;7.05;;;;;;;;;;5025476;28;20211;-53
2024/04/02 14:15:49;;;;;;;38.20;7.20;;;;;;;;;;5026239;28;20033;-49
2024/04/02 14:18:15;;;;;;;38.45;8.98;;;;;;;;;;5042046;28;20041;-53
2024/04/02 14:20:56;;;;;;;32.67;8.07;;;;;;;;;;5026990;28;20034;-49
2024/04/02 14:23:23;;;;;;;44.83;7.95;;;;;;;;;;5026520;28;20117;-57
2024/04/02 14:25:52;;;;;;;52.63;8.18;;;;;;;;;;5024137;28;20707;-56
2024/04/02 14:28:18;;;;;;;41.75;7.75;;;;;;;;;;5026504;28;20037;-51
2024/04/02 14:30:44;;;;;;;36.47;7.38;;;;;;;;;;5025537;28;20037;-49
2024/04/02 14:33:10;;;;;;;42.05;7.40;;;;;;;;;;5026702;28;20037;-54